sensor_id;sensor_type;location;lat;lon;timestamp;pressure;altitude;pressure_sealevel;temperature;humidity
55317;BME280;41178;48.956;8.130;2022-07-30T18:07:54;99725.44;;;32.21;28.25
55317;BME280;41178;48.956;8.130;2022-07-30T18:09:56;99729.97;;;31.98;28.66
55317;BME280;41178;48.956;8.130;2022-07-30T18:11:58;99722.22;;;31.86;28.65
55317;BME280;41178;48.956;8.130;2022-07-30T18:14:01;99736.28;;;31.52;29.08
55317;BME280;41178;48.956;8.130;2022-07-30T18:16:04;99732.41;;;31.72;28.99
55317;BME280;41178;48.956;8.130;2022-07-30T18:18:06;99727.63;;;31.92;28.90
55317;BME280;41178;48.956;8.130;2022-07-30T18:20:08;99729.66;;;32.19;28.43
55317;BME280;41178;48.956;8.130;2022-07-30T18:22:10;99730.44;;;32.19;28.56
55317;BME280;41178;48.956;8.130;2022-07-30T18:24:15;99728.19;;;32.08;28.74
55317;BME280;41178;48.956;8.130;2022-07-30T18:26:17;99739.63;;;32.42;28.51
55317;BME280;41178;48.956;8.130;2022-07-30T18:28:19;99735.16;;;32.19;28.91
55317;BME280;41178;48.956;8.130;2022-07-30T18:30:21;99736.94;;;32.10;28.87
55317;BME280;41178;48.956;8.130;2022-07-30T18:32:23;99739.50;;;32.34;28.65
55317;BME280;41178;48.956;8.130;2022-07-30T18:34:25;99739.78;;;32.04;29.07
55317;BME280;41178;48.956;8.130;2022-07-30T18:36:27;99747.91;;;31.96;29.16
55317;BME280;41178;48.956;8.130;2022-07-30T18:38:29;99743.63;;;32.03;29.04
55317;BME280;41178;48.956;8.130;2022-07-30T18:40:30;99753.50;;;31.77;29.18
55317;BME280;41178;48.956;8.130;2022-07-30T18:42:32;99735.72;;;31.69;29.58
55317;BME280;41178;48.956;8.130;2022-07-30T18:44:34;99743.00;;;31.79;29.42
55317;BME280;41178;48.956;8.130;2022-07-30T18:46:36;99747.31;;;31.99;29.05
55317;BME280;41178;48.956;8.130;2022-07-30T18:48:37;99744.72;;;32.21;28.79
55317;BME280;41178;48.956;8.130;2022-07-30T18:50:39;99750.22;;;31.56;29.31
55317;BME280;41178;48.956;8.130;2022-07-30T18:52:41;99747.94;;;31.44;29.67
55317;BME280;41178;48.956;8.130;2022-07-30T18:54:43;99754.53;;;31.62;29.65
55317;BME280;41178;48.956;8.130;2022-07-30T18:56:44;99748.75;;;31.63;29.35
55317;BME280;41178;48.956;8.130;2022-07-30T18:58:46;99746.81;;;32.11;28.79
55317;BME280;41178;48.956;8.130;2022-07-30T19:00:48;99753.41;;;31.82;29.13
55317;BME280;41178;48.956;8.130;2022-07-30T19:02:50;99761.03;;;31.66;29.22
55317;BME280;41178;48.956;8.130;2022-07-30T19:04:52;99760.84;;;31.62;29.34
55317;BME280;41178;48.956;8.130;2022-07-30T19:06:54;99760.50;;;31.50;29.40
55317;BME280;41178;48.956;8.130;2022-07-30T19:08:55;99763.50;;;31.67;29.66
55317;BME280;41178;48.956;8.130;2022-07-30T19:10:58;99755.72;;;31.56;30.13
55317;BME280;41178;48.956;8.130;2022-07-30T19:13:00;99759.63;;;31.68;29.48
55317;BME280;41178;48.956;8.130;2022-07-30T19:15:02;99763.03;;;31.46;29.78
55317;BME280;41178;48.956;8.130;2022-07-30T19:17:04;99760.03;;;31.62;30.47
55317;BME280;41178;48.956;8.130;2022-07-30T19:19:15;99754.91;;;31.17;30.93
55317;BME280;41178;48.956;8.130;2022-07-30T19:21:17;99753.06;;;30.69;31.88
55317;BME280;41178;48.956;8.130;2022-07-30T19:23:19;99748.75;;;30.63;32.31
55317;BME280;41178;48.956;8.130;2022-07-30T19:25:20;99740.28;;;30.84;32.19
55317;BME280;41178;48.956;8.130;2022-07-30T19:27:22;99745.72;;;30.65;32.57
55317;BME280;41178;48.956;8.130;2022-07-30T19:29:24;99750.56;;;31.16;31.92
55317;BME280;41178;48.956;8.130;2022-07-30T19:31:26;99761.53;;;31.16;31.95
55317;BME280;41178;48.956;8.130;2022-07-30T19:33:27;99758.69;;;30.59;32.75
55317;BME280;41178;48.956;8.130;2022-07-30T19:35:29;99757.00;;;30.39;33.08
55317;BME280;41178;48.956;8.130;2022-07-30T19:37:31;99758.19;;;30.57;33.12
55317;BME280;41178;48.956;8.130;2022-07-30T19:39:32;99766.84;;;30.88;32.33
55317;BME280;41178;48.956;8.130;2022-07-30T19:41:35;99765.88;;;30.55;33.26
55317;BME280;41178;48.956;8.130;2022-07-30T19:43:41;99768.63;;;30.79;33.18
55317;BME280;41178;48.956;8.130;2022-07-30T19:45:56;99778.72;;;30.60;32.75
55317;BME280;41178;48.956;8.130;2022-07-30T19:47:58;99777.78;;;30.69;31.71
55317;BME280;41178;48.956;8.130;2022-07-30T19:50:01;99789.59;;;30.46;31.61
55317;BME280;41178;48.956;8.130;2022-07-30T19:52:02;99795.00;;;30.75;31.38
55317;BME280;41178;48.956;8.130;2022-07-30T19:54:24;99793.19;;;30.41;32.20
55317;BME280;41178;48.956;8.130;2022-07-30T19:56:26;99790.81;;;30.83;31.64
55317;BME280;41178;48.956;8.130;2022-07-30T19:58:30;99801.63;;;30.74;31.78
55317;BME280;41178;48.956;8.130;2022-07-30T20:00:33;99807.63;;;30.76;31.35
55317;BME280;41178;48.956;8.130;2022-07-30T20:02:36;99800.03;;;30.68;31.60
55317;BME280;41178;48.956;8.130;2022-07-30T20:04:40;99808.38;;;30.57;31.54
55317;BME280;41178;48.956;8.130;2022-07-30T20:06:44;99812.09;;;30.67;31.72
55317;BME280;41178;48.956;8.130;2022-07-30T20:08:46;99811.91;;;31.06;31.26
55317;BME280;41178;48.956;8.130;2022-07-30T20:10:50;99823.03;;;30.96;31.08
55317;BME280;41178;48.956;8.130;2022-07-30T20:12:51;99821.88;;;30.78;31.11
55317;BME280;41178;48.956;8.130;2022-07-30T20:14:57;99829.25;;;30.53;31.50
55317;BME280;41178;48.956;8.130;2022-07-30T20:16:58;99831.59;;;30.41;31.69
55317;BME280;41178;48.956;8.130;2022-07-30T20:19:03;99824.69;;;29.40;33.84
55317;BME280;41178;48.956;8.130;2022-07-30T20:21:05;99807.53;;;29.24;33.65
55317;BME280;41178;48.956;8.130;2022-07-30T20:23:14;99797.50;;;28.99;33.27
55317;BME280;41178;48.956;8.130;2022-07-30T20:25:16;99815.28;;;29.96;31.34
55317;BME280;41178;48.956;8.130;2022-07-30T20:27:22;99833.59;;;30.35;31.32
55317;BME280;41178;48.956;8.130;2022-07-30T20:29:39;99816.56;;;29.25;32.63
55317;BME280;41178;48.956;8.130;2022-07-30T20:31:42;99818.13;;;29.41;32.46
55317;BME280;41178;48.956;8.130;2022-07-30T20:33:46;99838.25;;;29.06;32.68
55317;BME280;41178;48.956;8.130;2022-07-30T20:35:51;99839.84;;;29.27;32.50
55317;BME280;41178;48.956;8.130;2022-07-30T20:37:53;99841.72;;;28.51;32.72
55317;BME280;41178;48.956;8.130;2022-07-30T20:39:57;99831.72;;;29.07;32.31
55317;BME280;41178;48.956;8.130;2022-07-30T20:41:58;99828.34;;;29.25;32.48
55317;BME280;41178;48.956;8.130;2022-07-30T20:44:10;99840.44;;;29.59;31.97
55317;BME280;41178;48.956;8.130;2022-07-30T20:46:24;99851.13;;;29.10;32.18
55317;BME280;41178;48.956;8.130;2022-07-30T20:48:25;99836.38;;;28.96;32.71
55317;BME280;41178;48.956;8.130;2022-07-30T20:50:35;99847.81;;;29.14;32.69
55317;BME280;41178;48.956;8.130;2022-07-30T20:52:40;99844.13;;;29.39;32.05
55317;BME280;41178;48.956;8.130;2022-07-30T20:54:48;99850.38;;;29.50;32.01
55317;BME280;41178;48.956;8.130;2022-07-30T20:56:50;99846.44;;;29.21;32.32
55317;BME280;41178;48.956;8.130;2022-07-30T20:58:51;99845.66;;;29.60;31.85
55317;BME280;41178;48.956;8.130;2022-07-30T21:00:55;99853.03;;;29.05;32.47
55317;BME280;41178;48.956;8.130;2022-07-30T21:02:58;99858.22;;;29.11;32.26
55317;BME280;41178;48.956;8.130;2022-07-30T21:05:04;99860.13;;;29.11;32.05
55317;BME280;41178;48.956;8.130;2022-07-30T21:07:06;99860.75;;;29.58;31.92
55317;BME280;41178;48.956;8.130;2022-07-30T21:09:08;99859.53;;;29.74;31.85
55317;BME280;41178;48.956;8.130;2022-07-30T21:11:12;99867.50;;;29.71;31.78
55317;BME280;41178;48.956;8.130;2022-07-30T21:13:15;99866.78;;;29.55;32.19
55317;BME280;41178;48.956;8.130;2022-07-30T21:15:17;99868.72;;;29.54;32.28
55317;BME280;41178;48.956;8.130;2022-07-30T21:17:24;99877.81;;;29.44;32.32
55317;BME280;41178;48.956;8.130;2022-07-30T21:19:28;99876.19;;;29.38;32.65
55317;BME280;41178;48.956;8.130;2022-07-30T21:21:31;99875.88;;;29.45;32.05
55317;BME280;41178;48.956;8.130;2022-07-30T21:23:48;99883.00;;;29.46;32.37
55317;BME280;41178;48.956;8.130;2022-07-30T21:25:50;99872.91;;;29.41;32.42
55317;BME280;41178;48.956;8.130;2022-07-30T21:28:03;99874.50;;;29.47;32.11
55317;BME280;41178;48.956;8.130;2022-07-30T21:30:05;99888.31;;;29.17;32.28
55317;BME280;41178;48.956;8.130;2022-07-30T21:32:08;99882.28;;;29.20;32.30
55317;BME280;41178;48.956;8.130;2022-07-30T21:34:12;99875.97;;;29.29;31.88
55317;BME280;41178;48.956;8.130;2022-07-30T21:36:14;99875.34;;;29.43;32.05
55317;BME280;41178;48.956;8.130;2022-07-30T21:38:15;99883.41;;;29.08;32.38
55317;BME280;41178;48.956;8.130;2022-07-30T21:40:17;99876.78;;;29.20;31.99
55317;BME280;41178;48.956;8.130;2022-07-30T21:42:25;99879.75;;;29.39;31.89
55317;BME280;41178;48.956;8.130;2022-07-30T21:44:30;99886.03;;;29.44;31.76
55317;BME280;41178;48.956;8.130;2022-07-30T21:46:32;99888.47;;;28.55;32.38
55317;BME280;41178;48.956;8.130;2022-07-30T21:48:34;99870.50;;;29.19;31.95
55317;BME280;41178;48.956;8.130;2022-07-30T21:50:35;99876.94;;;28.89;31.89
55317;BME280;41178;48.956;8.130;2022-07-30T21:52:43;99877.91;;;29.19;32.09
55317;BME280;41178;48.956;8.130;2022-07-30T21:54:45;99887.03;;;28.99;31.76
55317;BME280;41178;48.956;8.130;2022-07-30T21:56:50;99891.44;;;28.84;32.28
55317;BME280;41178;48.956;8.130;2022-07-30T21:58:56;99887.75;;;29.20;31.92
55317;BME280;41178;48.956;8.130;2022-07-30T22:01:03;99889.44;;;29.10;31.82
55317;BME280;41178;48.956;8.130;2022-07-30T22:03:18;99888.00;;;29.28;32.00
55317;BME280;41178;48.956;8.130;2022-07-30T22:05:41;99900.72;;;28.94;31.96
55317;BME280;41178;48.956;8.130;2022-07-30T22:07:42;99898.88;;;28.73;32.18
55317;BME280;41178;48.956;8.130;2022-07-30T22:09:44;99894.78;;;28.45;32.16
55317;BME280;41178;48.956;8.130;2022-07-30T22:11:46;99898.31;;;27.94;32.82
55317;BME280;41178;48.956;8.130;2022-07-30T22:13:48;99892.81;;;28.61;31.89
55317;BME280;41178;48.956;8.130;2022-07-30T22:16:09;99887.94;;;28.48;32.52
55317;BME280;41178;48.956;8.130;2022-07-30T22:18:14;99882.75;;;28.36;32.28
55317;BME280;41178;48.956;8.130;2022-07-30T22:20:21;99885.47;;;28.72;31.89
55317;BME280;41178;48.956;8.130;2022-07-30T22:22:22;99885.75;;;28.45;32.57
55317;BME280;41178;48.956;8.130;2022-07-30T22:24:28;99894.50;;;28.52;31.86
55317;BME280;41178;48.956;8.130;2022-07-30T22:26:31;99892.28;;;28.54;32.11
55317;BME280;41178;48.956;8.130;2022-07-30T22:28:33;99891.25;;;28.24;32.12
55317;BME280;41178;48.956;8.130;2022-07-30T22:30:38;99894.38;;;27.54;33.24
55317;BME280;41178;48.956;8.130;2022-07-30T22:32:39;99878.13;;;28.21;32.28
55317;BME280;41178;48.956;8.130;2022-07-30T22:34:42;99884.63;;;27.89;32.56
55317;BME280;41178;48.956;8.130;2022-07-30T22:36:45;99891.53;;;28.17;32.84
55317;BME280;41178;48.956;8.130;2022-07-30T22:38:48;99875.63;;;28.45;32.65
55317;BME280;41178;48.956;8.130;2022-07-30T22:40:59;99888.22;;;28.31;32.37
55317;BME280;41178;48.956;8.130;2022-07-30T22:43:07;99871.81;;;28.21;32.50
55317;BME280;41178;48.956;8.130;2022-07-30T22:45:12;99871.81;;;28.46;32.28
55317;BME280;41178;48.956;8.130;2022-07-30T22:47:15;99877.84;;;28.23;32.77
55317;BME280;41178;48.956;8.130;2022-07-30T22:49:22;99872.59;;;27.90;32.93
55317;BME280;41178;48.956;8.130;2022-07-30T22:51:45;99865.50;;;28.05;32.68
55317;BME280;41178;48.956;8.130;2022-07-30T22:54:06;99865.75;;;27.62;33.53
55317;BME280;41178;48.956;8.130;2022-07-30T22:56:13;99867.69;;;27.82;33.47
55317;BME280;41178;48.956;8.130;2022-07-30T22:58:16;99870.97;;;28.41;32.67
55317;BME280;41178;48.956;8.130;2022-07-30T23:00:22;99865.50;;;28.46;32.75
55317;BME280;41178;48.956;8.130;2022-07-30T23:02:44;99881.53;;;27.60;33.20
55317;BME280;41178;48.956;8.130;2022-07-30T23:04:47;99882.34;;;27.45;33.13
55317;BME280;41178;48.956;8.130;2022-07-30T23:06:50;99865.53;;;28.15;32.50
55317;BME280;41178;48.956;8.130;2022-07-30T23:08:51;99871.50;;;27.91;33.19
55317;BME280;41178;48.956;8.130;2022-07-30T23:10:53;99879.97;;;27.79;33.46
55317;BME280;41178;48.956;8.130;2022-07-30T23:12:55;99878.88;;;27.75;33.57
55317;BME280;41178;48.956;8.130;2022-07-30T23:14:57;99870.44;;;27.87;33.39
55317;BME280;41178;48.956;8.130;2022-07-30T23:16:59;99884.88;;;27.62;33.30
55317;BME280;41178;48.956;8.130;2022-07-30T23:19:01;99875.31;;;27.80;33.52
55317;BME280;41178;48.956;8.130;2022-07-30T23:21:03;99875.25;;;27.54;33.92
55317;BME280;41178;48.956;8.130;2022-07-30T23:23:05;99867.63;;;26.93;34.32
55317;BME280;41178;48.956;8.130;2022-07-30T23:25:08;99856.59;;;27.20;34.40
55317;BME280;41178;48.956;8.130;2022-07-30T23:27:10;99859.66;;;27.50;34.15
55317;BME280;41178;48.956;8.130;2022-07-30T23:29:12;99861.81;;;27.37;34.08
55317;BME280;41178;48.956;8.130;2022-07-30T23:31:16;99858.25;;;27.26;34.29
55317;BME280;41178;48.956;8.130;2022-07-30T23:33:17;99857.75;;;27.35;34.22
55317;BME280;41178;48.956;8.130;2022-07-30T23:35:19;99865.31;;;27.22;33.88
55317;BME280;41178;48.956;8.130;2022-07-30T23:37:21;99861.53;;;27.34;34.37
55317;BME280;41178;48.956;8.130;2022-07-30T23:39:23;99865.94;;;27.35;33.94
55317;BME280;41178;48.956;8.130;2022-07-30T23:41:24;99861.16;;;27.04;34.56
55317;BME280;41178;48.956;8.130;2022-07-30T23:43:34;99870.13;;;27.00;34.68
55317;BME280;41178;48.956;8.130;2022-07-30T23:45:35;99863.56;;;27.01;34.66
55317;BME280;41178;48.956;8.130;2022-07-30T23:47:37;99858.94;;;26.53;35.09
55317;BME280;41178;48.956;8.130;2022-07-30T23:49:59;99857.00;;;26.97;34.80
55317;BME280;41178;48.956;8.130;2022-07-30T23:52:01;99858.03;;;26.85;34.75
55317;BME280;41178;48.956;8.130;2022-07-30T23:54:02;99860.25;;;26.88;34.90
55317;BME280;41178;48.956;8.130;2022-07-30T23:56:04;99857.31;;;27.05;34.81
55317;BME280;41178;48.956;8.130;2022-07-30T23:58:06;99845.78;;;26.83;35.09
